SBGO/GYN METAR and TAF weather

Enter ICAO airport designator
Station Type Date Time Source
SBGO METAR 2020/01/29 19:00 UTC NOAA

SBGO 291900Z 25009KT 9999 FEW025 FEW030TCU SCT100 25/21 Q1016


Station Type Date Time Source
SBGO Decoded METAR 2020/01/29 19:00 UTC NOAA

Goiania Aeroporto , Brazil (SBGO) 16-38S 049-13W
Jan 29, 2020 - 02:00 PM EST / 2020.01.29 1900 UTC
Wind: from the WSW (250 degrees) at 10 MPH (9 KT):0
Visibility: greater than 7 mile(s):0
Sky conditions: partly cloudy
Weather: Towering cumulus clouds observed
Temperature: 77 F (25 C)
Dew Point: 69 F (21 C)
Relative Humidity: 78%
Pressure (altimeter): 30.00 in. Hg (1016 hPa)
ob: SBGO 291900Z 25009KT 9999 FEW025 FEW030TCU SCT100 25/21 Q1016
cycle: 19

Station Type Date Time Source
SBGO TAF 2020/01/29 18:15 UTC NOAA

TAF TAF SBGO 291600Z 2918/3018 32006KT 9999 FSCT045 FEW050TCU TN21/3006Z TX27/3017Z PROB40 2919/2922 TSRA SCT030 FEW040CB
BECMG 3001/3003 FEW025
BECMG 3011/3013 BKN015 FEW035TCU
RMK PEC

Example: see airport list